Time;durP1;ratioP1;P1;durP2;ratioP2;P2;SDS_P1;SDS_P2;PMS_P1;PMS_P2;Temp;Humidity;BMP_temperature;BMP_pressure;BME280_temperature;BME280_humidity;BME280_pressure;Samples;Min_cycle;Max_cycle;Signal;HPM_P1;HPM_P2
2022/06/18 00:00:43;;;;;;;88.28;45.15;;;;;;;;;;1563629;31;22712;-64
2022/06/18 00:01:40;;;;;;;84.15;44.45;;;;;;;;;;1564671;31;21674;-64
2022/06/18 00:02:31;;;;;;;83.55;44.33;;;;;;;;;;1563686;31;22624;-64
2022/06/18 00:03:24;;;;;;;84.95;44.20;;;;;;;;;;1564716;31;22002;-64
2022/06/18 00:04:18;;;;;;;82.03;42.13;;;;;;;;;;1564719;31;22204;-64
2022/06/18 00:05:13;;;;;;;81.30;43.35;;;;;;;;;;1559649;31;21557;-64
2022/06/18 00:06:04;;;;;;;88.55;41.88;;;;;;;;;;1558235;31;21892;-64
2022/06/18 00:07:00;;;;;;;79.13;41.22;;;;;;;;;;1562351;31;22220;-64
2022/06/18 00:07:53;;;;;;;84.60;41.15;;;;;;;;;;1564238;31;21618;-65
2022/06/18 00:08:45;;;;;;;81.78;39.30;;;;;;;;;;1563867;31;22143;-64
2022/06/18 00:09:41;;;;;;;77.82;41.40;;;;;;;;;;1563576;31;22247;-64
2022/06/18 00:10:35;;;;;;;79.80;40.30;;;;;;;;;;1558215;31;22092;-64
2022/06/18 00:13:48;;;;;;;76.55;36.83;;;;;;;;;;1560787;31;22322;-64
2022/06/18 00:14:42;;;;;;;69.72;36.70;;;;;;;;;;1563298;31;21941;-63
2022/06/18 00:15:37;;;;;;;71.70;35.53;;;;;;;;;;1557962;31;21960;-64
2022/06/18 00:16:31;;;;;;;64.00;35.33;;;;;;;;;;1558631;31;21649;-64
2022/06/18 00:17:23;;;;;;;62.95;34.75;;;;;;;;;;1562530;31;22078;-64
2022/06/18 00:18:15;;;;;;;61.97;33.92;;;;;;;;;;1563305;31;21910;-64
2022/06/18 00:19:07;;;;;;;71.40;33.40;;;;;;;;;;1562445;31;21676;-64
2022/06/18 00:19:59;;;;;;;63.58;33.65;;;;;;;;;;1564441;31;21638;-64
2022/06/18 00:20:51;;;;;;;59.83;32.10;;;;;;;;;;1564593;31;21647;-64
2022/06/18 00:21:43;;;;;;;64.50;32.53;;;;;;;;;;1567095;31;21629;-64
2022/06/18 00:22:34;;;;;;;63.33;30.63;;;;;;;;;;1556525;31;21596;-63
2022/06/18 00:23:26;;;;;;;58.10;30.80;;;;;;;;;;1553487;31;21686;-63
2022/06/18 00:24:20;;;;;;;57.92;29.42;;;;;;;;;;1557398;31;21640;-64
2022/06/18 00:25:20;;;;;;;57.70;29.33;;;;;;;;;;1554419;31;22085;-64
2022/06/18 00:26:11;;;;;;;53.35;28.35;;;;;;;;;;1558194;31;21928;-64
2022/06/18 00:27:04;;;;;;;61.15;30.00;;;;;;;;;;1563370;31;21626;-64
2022/06/18 00:27:56;;;;;;;57.22;28.00;;;;;;;;;;1561695;31;22372;-64
2022/06/18 00:28:48;;;;;;;51.35;26.95;;;;;;;;;;1563118;31;21855;-64
2022/06/18 00:29:42;;;;;;;52.88;27.85;;;;;;;;;;1563365;31;21730;-63
2022/06/18 00:30:34;;;;;;;50.70;26.35;;;;;;;;;;1562641;31;21605;-65
2022/06/18 00:31:25;;;;;;;51.80;26.20;;;;;;;;;;1564551;31;21908;-64
2022/06/18 00:32:18;;;;;;;57.17;26.98;;;;;;;;;;1564594;31;22585;-64
2022/06/18 00:33:09;;;;;;;54.75;24.92;;;;;;;;;;1562317;31;21650;-65
2022/06/18 00:34:00;;;;;;;50.58;25.35;;;;;;;;;;1564620;31;21582;-64
2022/06/18 00:34:54;;;;;;;44.75;23.95;;;;;;;;;;1557633;31;22196;-64
2022/06/18 00:35:47;;;;;;;40.95;23.00;;;;;;;;;;1558164;31;22045;-64
2022/06/18 00:36:42;;;;;;;37.75;22.30;;;;;;;;;;1560225;31;21676;-64
2022/06/18 00:37:33;;;;;;;46.97;22.27;;;;;;;;;;1564694;31;22144;-64
2022/06/18 00:38:30;;;;;;;36.83;21.92;;;;;;;;;;1563057;31;21671;-64
2022/06/18 00:39:21;;;;;;;43.90;21.88;;;;;;;;;;1563016;31;21667;-63
2022/06/18 00:40:26;;;;;;;40.45;21.00;;;;;;;;;;1564285;31;21755;-63
2022/06/18 00:41:22;;;;;;;41.35;21.23;;;;;;;;;;1563347;31;21611;-64
2022/06/18 00:42:25;;;;;;;50.10;22.50;;;;;;;;;;1559242;31;22190;-64
2022/06/18 00:43:22;;;;;;;36.80;20.17;;;;;;;;;;1564400;31;21615;-65
2022/06/18 00:44:30;;;;;;;42.60;19.83;;;;;;;;;;1565280;31;21601;-64
2022/06/18 00:45:27;;;;;;;38.67;18.75;;;;;;;;;;1560309;31;22427;-65
2022/06/18 00:46:26;;;;;;;40.40;20.67;;;;;;;;;;1561327;31;21642;-64
2022/06/18 00:47:33;;;;;;;29.63;18.70;;;;;;;;;;1563765;31;21609;-64
2022/06/18 00:48:30;;;;;;;34.92;18.00;;;;;;;;;;1565006;31;22588;-64
2022/06/18 00:49:29;;;;;;;28.67;16.77;;;;;;;;;;1563210;31;22265;-64
2022/06/18 00:50:25;;;;;;;28.38;17.40;;;;;;;;;;1566631;31;21637;-64
2022/06/18 00:51:27;;;;;;;37.88;16.60;;;;;;;;;;1565309;31;22158;-65
2022/06/18 00:52:23;;;;;;;25.73;16.58;;;;;;;;;;1564046;31;22305;-64
2022/06/18 00:53:20;;;;;;;27.88;16.70;;;;;;;;;;1565713;31;22306;-63
2022/06/18 00:54:20;;;;;;;29.40;17.08;;;;;;;;;;1564187;31;21805;-64
2022/06/18 00:55:19;;;;;;;29.88;16.27;;;;;;;;;;1564513;31;21745;-64
2022/06/18 00:56:17;;;;;;;21.75;14.48;;;;;;;;;;1565659;31;21920;-65
2022/06/18 00:57:16;;;;;;;31.05;15.02;;;;;;;;;;1565046;31;22108;-65
2022/06/18 00:58:13;;;;;;;25.63;14.27;;;;;;;;;;1565130;31;21695;-64
2022/06/18 00:59:13;;;;;;;21.70;13.98;;;;;;;;;;1562985;31;22297;-64
2022/06/18 01:00:09;;;;;;;23.35;13.95;;;;;;;;;;1565672;31;22514;-64
2022/06/18 01:01:03;;;;;;;23.60;13.85;;;;;;;;;;1558333;31;22956;-64
2022/06/18 01:01:55;;;;;;;23.77;13.90;;;;;;;;;;1558505;31;22142;-64
2022/06/18 01:02:52;;;;;;;26.55;14.35;;;;;;;;;;1560304;31;21726;-64
2022/06/18 01:03:46;;;;;;;29.15;16.83;;;;;;;;;;1561556;31;22509;-65
2022/06/18 01:04:38;;;;;;;33.10;17.80;;;;;;;;;;1564566;31;21747;-64
2022/06/18 01:05:36;;;;;;;35.40;19.10;;;;;;;;;;1566517;31;22401;-64
2022/06/18 01:06:31;;;;;;;48.55;23.65;;;;;;;;;;1562341;31;21775;-65
2022/06/18 01:07:29;;;;;;;43.40;24.15;;;;;;;;;;1559831;31;22226;-64
2022/06/18 01:08:24;;;;;;;61.40;28.08;;;;;;;;;;1561665;31;22459;-64
2022/06/18 01:09:17;;;;;;;51.42;28.38;;;;;;;;;;1564881;31;21636;-63
2022/06/18 01:10:22;;;;;;;62.05;32.58;;;;;;;;;;1566695;31;21844;-64
2022/06/18 01:11:19;;;;;;;60.15;32.80;;;;;;;;;;1562350;31;21611;-64
2022/06/18 01:12:12;;;;;;;72.13;37.42;;;;;;;;;;1561041;31;22341;-64
2022/06/18 01:13:09;;;;;;;75.72;37.92;;;;;;;;;;1564853;31;21619;-65
2022/06/18 01:14:04;;;;;;;88.47;43.72;;;;;;;;;;1564799;31;21933;-63
2022/06/18 01:15:02;;;;;;;86.07;44.95;;;;;;;;;;1564946;31;21625;-64
2022/06/18 01:15:55;;;;;;;97.15;49.22;;;;;;;;;;1565127;31;21613;-65
2022/06/18 01:16:49;;;;;;;113.80;50.20;;;;;;;;;;1564547;31;22773;-63
2022/06/18 01:17:40;;;;;;;103.00;51.97;;;;;;;;;;1564536;31;21717;-64
2022/06/18 01:18:33;;;;;;;107.30;52.13;;;;;;;;;;1564123;31;22057;-64
2022/06/18 01:19:30;;;;;;;112.13;55.47;;;;;;;;;;1561082;31;21596;-64
2022/06/18 01:20:25;;;;;;;115.18;58.20;;;;;;;;;;1561021;31;21589;-65
2022/06/18 01:21:34;;;;;;;125.30;59.95;;;;;;;;;;1560913;31;21648;-65
2022/06/18 01:22:40;;;;;;;120.28;60.85;;;;;;;;;;1557074;31;22404;-65
2022/06/18 01:23:38;;;;;;;130.07;65.03;;;;;;;;;;1559265;31;22160;-64
2022/06/18 01:24:38;;;;;;;148.77;69.88;;;;;;;;;;1560571;31;21651;-64
2022/06/18 01:25:30;;;;;;;140.93;69.90;;;;;;;;;;1565611;31;21679;-65
2022/06/18 01:26:23;;;;;;;144.07;67.97;;;;;;;;;;1558980;31;21706;-65
2022/06/18 01:27:15;;;;;;;137.75;65.20;;;;;;;;;;1557549;31;22242;-64
2022/06/18 01:28:09;;;;;;;137.30;65.45;;;;;;;;;;1562699;31;21960;-64
2022/06/18 01:29:00;;;;;;;144.25;67.85;;;;;;;;;;1563515;31;21601;-64
2022/06/18 01:29:51;;;;;;;143.80;70.10;;;;;;;;;;1565470;31;22784;-65
2022/06/18 01:30:45;;;;;;;151.00;71.28;;;;;;;;;;1556812;31;22224;-64
2022/06/18 01:31:37;;;;;;;152.68;71.65;;;;;;;;;;1559540;31;22322;-65
2022/06/18 01:32:29;;;;;;;164.05;74.75;;;;;;;;;;1562605;31;21965;-64
2022/06/18 01:33:20;;;;;;;146.40;72.47;;;;;;;;;;1564353;31;21700;-64
2022/06/18 01:34:12;;;;;;;162.60;75.88;;;;;;;;;;1564903;31;22480;-63
2022/06/18 01:35:06;;;;;;;154.20;74.35;;;;;;;;;;1565026;31;21730;-64
2022/06/18 01:35:58;;;;;;;152.68;75.43;;;;;;;;;;1563236;31;22399;-64
2022/06/18 01:36:51;;;;;;;149.70;70.57;;;;;;;;;;1565112;31;22051;-64
2022/06/18 01:37:43;;;;;;;142.52;71.03;;;;;;;;;;1558952;31;22501;-64
2022/06/18 01:38:40;;;;;;;145.40;70.25;;;;;;;;;;1558577;31;21608;-64
2022/06/18 01:39:36;;;;;;;152.40;72.75;;;;;;;;;;1562759;31;22232;-64
2022/06/18 01:40:38;;;;;;;149.40;70.50;;;;;;;;;;1566173;31;22557;-64
2022/06/18 01:41:50;;;;;;;139.50;70.30;;;;;;;;;;1564283;31;21708;-63
2022/06/18 01:42:46;;;;;;;143.50;68.93;;;;;;;;;;1559974;31;21874;-64
2022/06/18 01:43:38;;;;;;;127.63;65.35;;;;;;;;;;1560900;31;22294;-64
2022/06/18 01:44:46;;;;;;;146.63;67.53;;;;;;;;;;1565111;31;22281;-64
2022/06/18 01:45:39;;;;;;;132.38;62.85;;;;;;;;;;1566153;31;21611;-64
2022/06/18 01:46:33;;;;;;;137.70;64.25;;;;;;;;;;1563892;31;21835;-64
2022/06/18 01:47:29;;;;;;;124.00;59.47;;;;;;;;;;1565256;31;21627;-64
2022/06/18 01:48:27;;;;;;;122.13;58.85;;;;;;;;;;1564570;31;21598;-64
2022/06/18 01:49:23;;;;;;;122.93;57.92;;;;;;;;;;1563670;31;22198;-63
2022/06/18 01:50:20;;;;;;;118.68;58.20;;;;;;;;;;1561835;31;22323;-65
2022/06/18 01:51:17;;;;;;;112.57;55.20;;;;;;;;;;1564310;31;21605;-64
2022/06/18 01:52:11;;;;;;;115.60;55.63;;;;;;;;;;1565186;31;21742;-64
2022/06/18 01:53:09;;;;;;;102.28;52.63;;;;;;;;;;1563963;31;21754;-64
2022/06/18 01:54:07;;;;;;;104.68;50.85;;;;;;;;;;1559479;31;21615;-64
2022/06/18 01:55:10;;;;;;;104.28;51.33;;;;;;;;;;1564784;31;21734;-64
2022/06/18 01:56:09;;;;;;;108.57;50.65;;;;;;;;;;1564749;31;22630;-64
2022/06/18 01:57:11;;;;;;;104.18;49.40;;;;;;;;;;1565054;31;21695;-64
2022/06/18 01:58:09;;;;;;;95.93;46.92;;;;;;;;;;1560009;31;22063;-64
2022/06/18 01:59:05;;;;;;;91.57;44.67;;;;;;;;;;1562087;31;22243;-64
2022/06/18 02:00:09;;;;;;;95.78;45.55;;;;;;;;;;1564715;31;21619;-63
2022/06/18 02:01:03;;;;;;;85.25;45.38;;;;;;;;;;1557358;31;21803;-63
2022/06/18 02:01:56;;;;;;;92.78;43.95;;;;;;;;;;1557823;31;21674;-64
2022/06/18 02:02:48;;;;;;;88.05;43.30;;;;;;;;;;1563447;31;22346;-63
2022/06/18 02:03:40;;;;;;;86.28;41.08;;;;;;;;;;1562412;31;21643;-64
2022/06/18 02:04:34;;;;;;;79.40;41.40;;;;;;;;;;1558698;31;21607;-63
2022/06/18 02:05:26;;;;;;;82.60;40.00;;;;;;;;;;1559795;31;22137;-64
2022/06/18 02:06:20;;;;;;;79.72;38.97;;;;;;;;;;1564150;31;22518;-64
2022/06/18 02:07:13;;;;;;;76.28;39.20;;;;;;;;;;1563947;31;21761;-64
2022/06/18 02:08:08;;;;;;;74.65;38.63;;;;;;;;;;1564783;31;22364;-64
2022/06/18 02:09:01;;;;;;;75.65;37.58;;;;;;;;;;1562288;31;21963;-64
2022/06/18 02:09:58;;;;;;;74.30;36.40;;;;;;;;;;1563934;31;22340;-64
2022/06/18 02:10:58;;;;;;;71.07;36.03;;;;;;;;;;1564962;31;21703;-64
2022/06/18 02:11:50;;;;;;;74.75;33.42;;;;;;;;;;1563168;31;22325;-64
2022/06/18 02:12:42;;;;;;;71.75;34.47;;;;;;;;;;1563832;31;22268;-64
2022/06/18 02:13:39;;;;;;;72.22;32.58;;;;;;;;;;1565000;31;22096;-64
2022/06/18 02:14:32;;;;;;;61.30;32.63;;;;;;;;;;1562778;31;21809;-63
2022/06/18 02:15:29;;;;;;;71.97;32.63;;;;;;;;;;1558875;31;22313;-64
2022/06/18 02:16:25;;;;;;;64.40;31.63;;;;;;;;;;1557800;31;21658;-64
2022/06/18 02:17:19;;;;;;;54.03;29.95;;;;;;;;;;1556649;31;21620;-65
2022/06/18 02:18:13;;;;;;;65.00;29.58;;;;;;;;;;1559670;31;21933;-63
2022/06/18 02:19:07;;;;;;;54.50;29.30;;;;;;;;;;1561354;31;22190;-64
2022/06/18 02:20:07;;;;;;;55.92;27.27;;;;;;;;;;1562535;31;21823;-64
2022/06/18 02:21:01;;;;;;;51.97;26.13;;;;;;;;;;1564849;31;21643;-64
2022/06/18 02:21:55;;;;;;;49.95;26.42;;;;;;;;;;1566521;31;22044;-64
2022/06/18 02:22:52;;;;;;;53.70;26.60;;;;;;;;;;1565080;31;21628;-64
2022/06/18 02:23:43;;;;;;;62.53;26.40;;;;;;;;;;1565201;31;21580;-63
2022/06/18 02:24:35;;;;;;;53.10;26.77;;;;;;;;;;1565522;31;22034;-64
2022/06/18 02:25:31;;;;;;;51.90;26.45;;;;;;;;;;1563012;31;21806;-65
2022/06/18 02:26:28;;;;;;;42.10;23.67;;;;;;;;;;1565313;31;21704;-64
2022/06/18 02:27:20;;;;;;;53.35;25.00;;;;;;;;;;1560554;31;21621;-64
2022/06/18 02:28:20;;;;;;;50.15;24.25;;;;;;;;;;1554954;31;21618;-64
2022/06/18 02:29:18;;;;;;;40.50;23.45;;;;;;;;;;1556643;31;21850;-64
2022/06/18 02:30:16;;;;;;;40.65;21.08;;;;;;;;;;1563384;31;21722;-64
2022/06/18 02:31:17;;;;;;;41.17;21.65;;;;;;;;;;1563883;31;22062;-64
2022/06/18 02:32:15;;;;;;;;;;;;;;;;;;1565177;31;22378;-64
2022/06/18 02:33:18;;;;;;;41.78;21.38;;;;;;;;;;1563736;31;21954;-64
2022/06/18 02:34:12;;;;;;;41.55;19.73;;;;;;;;;;1559633;31;21890;-64
2022/06/18 02:35:13;;;;;;;38.63;19.67;;;;;;;;;;1564771;31;22610;-64
2022/06/18 02:36:10;;;;;;;;;;;;;;;;;;1564114;31;22586;-63
2022/06/18 02:37:23;;;;;;;32.28;18.50;;;;;;;;;;1566782;31;21449;-64
2022/06/18 02:38:17;;;;;;;33.47;17.80;;;;;;;;;;1560464;31;22068;-64
2022/06/18 02:39:22;;;;;;;28.13;17.60;;;;;;;;;;1562561;31;21676;-64
2022/06/18 02:40:20;;;;;;;30.83;17.63;;;;;;;;;;1565039;31;22148;-65
2022/06/18 02:41:13;;;;;;;29.38;18.17;;;;;;;;;;1559687;31;21864;-64
2022/06/18 02:42:10;;;;;;;30.75;16.73;;;;;;;;;;1552182;31;21701;-64
2022/06/18 02:43:02;;;;;;;27.88;16.42;;;;;;;;;;1555801;31;21614;-64
2022/06/18 02:43:54;;;;;;;36.05;17.75;;;;;;;;;;1559487;31;21857;-64
2022/06/18 02:44:48;;;;;;;31.95;16.33;;;;;;;;;;1565581;31;21687;-65
2022/06/18 02:45:42;;;;;;;31.15;15.75;;;;;;;;;;1564924;31;21669;-64
2022/06/18 02:46:34;;;;;;;25.17;16.45;;;;;;;;;;1558167;31;22226;-64
2022/06/18 02:47:26;;;;;;;29.02;15.10;;;;;;;;;;1558885;31;21601;-64
2022/06/18 02:48:18;;;;;;;25.15;15.13;;;;;;;;;;1562418;31;21837;-64
2022/06/18 02:49:11;;;;;;;27.30;14.50;;;;;;;;;;1563630;31;21660;-63
2022/06/18 02:50:09;;;;;;;18.90;14.32;;;;;;;;;;1564768;31;21670;-64
2022/06/18 02:51:02;;;;;;;23.02;14.32;;;;;;;;;;1565485;31;22150;-64
2022/06/18 02:51:55;;;;;;;22.75;14.02;;;;;;;;;;1563451;31;21584;-65
2022/06/18 02:52:50;;;;;;;21.92;13.50;;;;;;;;;;1566264;31;22367;-63
2022/06/18 02:53:43;;;;;;;19.05;13.32;;;;;;;;;;1565009;31;21863;-62
2022/06/18 02:54:34;;;;;;;19.90;12.30;;;;;;;;;;1562899;31;21629;-64
2022/06/18 02:55:31;;;;;;;22.35;12.68;;;;;;;;;;1567068;31;22616;-64
2022/06/18 02:56:23;;;;;;;27.48;12.95;;;;;;;;;;1564856;31;21730;-65
2022/06/18 02:57:26;;;;;;;21.85;12.43;;;;;;;;;;1563459;31;21684;-63
2022/06/18 02:58:21;;;;;;;16.73;11.55;;;;;;;;;;1563018;31;21605;-65
2022/06/18 02:59:13;;;;;;;13.50;11.65;;;;;;;;;;1557427;31;22179;-65
2022/06/18 03:00:08;;;;;;;16.23;11.10;;;;;;;;;;1557021;31;21729;-65
2022/06/18 03:01:05;;;;;;;21.55;10.85;;;;;;;;;;1564041;31;22109;-64
2022/06/18 03:01:56;;;;;;;14.32;10.93;;;;;;;;;;1563703;31;21628;-64
2022/06/18 03:02:48;;;;;;;14.38;10.55;;;;;;;;;;1561660;31;21631;-64
2022/06/18 03:03:43;;;;;;;12.25;10.30;;;;;;;;;;1565985;31;21814;-65
2022/06/18 03:04:35;;;;;;;13.10;10.07;;;;;;;;;;1564856;31;22227;-63
2022/06/18 03:05:27;;;;;;;15.27;10.48;;;;;;;;;;1562611;31;21723;-64
2022/06/18 03:06:22;;;;;;;12.60;9.68;;;;;;;;;;1558449;31;21596;-64
2022/06/18 03:07:13;;;;;;;13.05;9.52;;;;;;;;;;1558123;31;21621;-64
2022/06/18 03:08:06;;;;;;;14.23;9.32;;;;;;;;;;1562564;31;21664;-65
2022/06/18 03:08:58;;;;;;;12.65;8.45;;;;;;;;;;1560982;31;22058;-65
2022/06/18 03:12:10;;;;;;;15.35;8.85;;;;;;;;;;1558655;31;21854;-64
2022/06/18 03:13:03;;;;;;;10.57;8.30;;;;;;;;;;1564780;31;21640;-64
2022/06/18 03:13:56;;;;;;;10.05;8.38;;;;;;;;;;1563536;31;22183;-64
2022/06/18 03:14:47;;;;;;;13.07;8.10;;;;;;;;;;1564002;31;22114;-64
2022/06/18 03:15:39;;;;;;;12.23;8.35;;;;;;;;;;1565670;31;21618;-65
2022/06/18 03:16:31;;;;;;;11.55;7.57;;;;;;;;;;1563683;31;22121;-64
2022/06/18 03:17:23;;;;;;;8.10;6.80;;;;;;;;;;1564326;31;21678;-65
2022/06/18 03:18:16;;;;;;;9.52;7.18;;;;;;;;;;1564907;31;21625;-65
2022/06/18 03:19:09;;;;;;;8.52;6.93;;;;;;;;;;1563168;31;21632;-63
2022/06/18 03:20:07;;;;;;;10.82;7.80;;;;;;;;;;1563486;31;21774;-65
2022/06/18 03:21:09;;;;;;;12.70;6.95;;;;;;;;;;1564044;31;21622;-64
2022/06/18 03:22:07;;;;;;;7.47;6.82;;;;;;;;;;1564881;31;21633;-64
2022/06/18 03:22:59;;;;;;;8.55;7.10;;;;;;;;;;1564127;31;22093;-64
2022/06/18 03:23:51;;;;;;;8.65;6.32;;;;;;;;;;1563335;31;22139;-64
2022/06/18 03:24:43;;;;;;;7.15;6.55;;;;;;;;;;1565976;31;21668;-64
2022/06/18 03:25:34;;;;;;;7.13;6.40;;;;;;;;;;1564980;31;22594;-64
2022/06/18 03:26:27;;;;;;;7.05;6.35;;;;;;;;;;1564027;31;22321;-64
2022/06/18 03:27:19;;;;;;;10.40;6.45;;;;;;;;;;1564992;31;21591;-64
2022/06/18 03:28:14;;;;;;;6.70;6.07;;;;;;;;;;1565111;31;22071;-64
2022/06/18 03:29:07;;;;;;;6.35;5.60;;;;;;;;;;1562401;31;22186;-64
2022/06/18 03:29:59;;;;;;;7.13;6.00;;;;;;;;;;1564584;31;21640;-64
2022/06/18 03:30:51;;;;;;;7.03;5.03;;;;;;;;;;1566224;31;21723;-64
2022/06/18 03:31:43;;;;;;;8.32;5.97;;;;;;;;;;1557282;31;22114;-64
2022/06/18 03:32:34;;;;;;;8.50;6.03;;;;;;;;;;1555532;31;22203;-64
2022/06/18 03:33:27;;;;;;;7.00;5.75;;;;;;;;;;1557690;31;22325;-64
2022/06/18 03:34:18;;;;;;;6.18;5.63;;;;;;;;;;1562715;31;21632;-64
2022/06/18 03:35:10;;;;;;;5.82;4.80;;;;;;;;;;1555309;31;21658;-64
2022/06/18 03:36:02;;;;;;;6.57;5.00;;;;;;;;;;1559496;31;21623;-64
2022/06/18 03:36:56;;;;;;;5.13;4.65;;;;;;;;;;1563044;31;22004;-63
2022/06/18 03:37:47;;;;;;;8.20;5.40;;;;;;;;;;1564191;31;21641;-64
2022/06/18 03:38:40;;;;;;;6.72;5.45;;;;;;;;;;1562734;31;21917;-64
2022/06/18 03:39:31;;;;;;;5.10;4.60;;;;;;;;;;1563663;31;22246;-64
2022/06/18 03:40:24;;;;;;;7.07;5.38;;;;;;;;;;1559456;31;21704;-65
2022/06/18 03:41:16;;;;;;;5.70;4.65;;;;;;;;;;1555085;31;22304;-64
2022/06/18 03:42:09;;;;;;;5.60;5.05;;;;;;;;;;1564987;31;21596;-65
2022/06/18 03:43:00;;;;;;;5.93;4.43;;;;;;;;;;1564539;31;22104;-65
2022/06/18 03:43:54;;;;;;;7.35;4.50;;;;;;;;;;1558097;31;21781;-65
2022/06/18 03:44:46;;;;;;;5.65;4.03;;;;;;;;;;1559731;31;21770;-65
2022/06/18 03:45:41;;;;;;;6.18;4.60;;;;;;;;;;1560494;31;22211;-64
2022/06/18 03:46:33;;;;;;;5.10;4.28;;;;;;;;;;1563268;31;22126;-65
2022/06/18 03:47:24;;;;;;;5.05;4.40;;;;;;;;;;1563988;31;21751;-64
2022/06/18 03:48:24;;;;;;;4.03;3.63;;;;;;;;;;1564974;31;22259;-62
2022/06/18 03:49:23;;;;;;;5.40;4.30;;;;;;;;;;1563382;31;21662;-64
2022/06/18 03:50:19;;;;;;;7.45;3.50;;;;;;;;;;1559195;31;21673;-63
2022/06/18 03:51:11;;;;;;;5.03;3.90;;;;;;;;;;1562982;31;21742;-64
2022/06/18 03:52:07;;;;;;;5.35;3.60;;;;;;;;;;1562890;31;21679;-64
2022/06/18 03:52:58;;;;;;;5.82;3.28;;;;;;;;;;1565149;31;21636;-65
2022/06/18 03:53:51;;;;;;;4.40;3.72;;;;;;;;;;1558229;31;22704;-64
2022/06/18 03:54:42;;;;;;;7.03;3.78;;;;;;;;;;1556255;31;21610;-64
2022/06/18 03:55:35;;;;;;;9.20;3.80;;;;;;;;;;1562604;31;21618;-63
2022/06/18 03:56:30;;;;;;;3.70;3.40;;;;;;;;;;1564202;31;21728;-64
2022/06/18 03:57:22;;;;;;;3.88;3.50;;;;;;;;;;1563083;31;21852;-64
2022/06/18 03:58:14;;;;;;;3.50;3.20;;;;;;;;;;1565221;31;21719;-64
2022/06/18 03:59:08;;;;;;;3.25;2.95;;;;;;;;;;1563618;31;22386;-63
2022/06/18 03:59:59;;;;;;;10.88;3.15;;;;;;;;;;1562586;31;21615;-64
2022/06/18 04:00:52;;;;;;;5.63;3.35;;;;;;;;;;1558681;31;22169;-65
2022/06/18 04:01:43;;;;;;;4.93;3.50;;;;;;;;;;1561800;31;21673;-64
2022/06/18 04:02:36;;;;;;;3.03;2.72;;;;;;;;;;1563890;31;21648;-64
2022/06/18 04:03:27;;;;;;;3.05;2.85;;;;;;;;;;1564831;31;22248;-64
2022/06/18 04:04:19;;;;;;;4.10;3.13;;;;;;;;;;1558209;31;22309;-64
2022/06/18 04:05:11;;;;;;;3.30;3.00;;;;;;;;;;1557186;31;21739;-64
2022/06/18 04:06:02;;;;;;;3.00;2.80;;;;;;;;;;1561716;31;22117;-64
2022/06/18 04:06:54;;;;;;;3.40;2.70;;;;;;;;;;1564169;31;21615;-64
2022/06/18 04:07:45;;;;;;;3.63;2.65;;;;;;;;;;1564667;31;22223;-64
2022/06/18 04:08:38;;;;;;;3.08;2.88;;;;;;;;;;1564293;31;21890;-64
2022/06/18 04:09:29;;;;;;;4.20;2.83;;;;;;;;;;1565466;31;21982;-65
2022/06/18 04:10:23;;;;;;;7.30;2.42;;;;;;;;;;1560891;31;21668;-65
2022/06/18 04:11:14;;;;;;;3.63;3.33;;;;;;;;;;1555008;31;21673;-65
2022/06/18 04:12:07;;;;;;;2.53;2.33;;;;;;;;;;1562308;31;22116;-64
2022/06/18 04:12:58;;;;;;;3.65;2.50;;;;;;;;;;1564152;31;21632;-63
2022/06/18 04:13:51;;;;;;;2.88;2.47;;;;;;;;;;1558205;31;22078;-65
2022/06/18 04:14:44;;;;;;;2.33;2.13;;;;;;;;;;1558575;31;21832;-64
2022/06/18 04:15:36;;;;;;;2.83;2.35;;;;;;;;;;1562590;31;22393;-63
2022/06/18 04:16:27;;;;;;;7.78;2.60;;;;;;;;;;1564371;31;21687;-64
2022/06/18 04:17:20;;;;;;;2.50;2.30;;;;;;;;;;1564376;31;22354;-64
2022/06/18 04:18:15;;;;;;;3.08;2.10;;;;;;;;;;1565775;31;21796;-63
2022/06/18 04:19:08;;;;;;;2.30;2.10;;;;;;;;;;1556675;31;22019;-64
2022/06/18 04:20:00;;;;;;;4.80;2.30;;;;;;;;;;1557199;31;21693;-64
2022/06/18 04:20:54;;;;;;;2.55;1.92;;;;;;;;;;1562302;31;22428;-64
2022/06/18 04:21:45;;;;;;;2.10;2.00;;;;;;;;;;1564428;31;22223;-64
2022/06/18 04:22:37;;;;;;;2.72;2.30;;;;;;;;;;1565050;31;22002;-64
2022/06/18 04:23:30;;;;;;;2.95;2.28;;;;;;;;;;1566488;31;22654;-65
2022/06/18 04:24:22;;;;;;;3.70;2.05;;;;;;;;;;1563976;31;22360;-65
2022/06/18 04:25:13;;;;;;;1.95;1.75;;;;;;;;;;1564428;31;21608;-64
2022/06/18 04:26:07;;;;;;;2.85;2.35;;;;;;;;;;1566674;31;21728;-64
2022/06/18 04:26:58;;;;;;;2.30;2.10;;;;;;;;;;1563866;31;21665;-64
2022/06/18 04:27:51;;;;;;;2.75;1.92;;;;;;;;;;1565411;31;22475;-64
2022/06/18 04:28:42;;;;;;;2.40;2.20;;;;;;;;;;1564075;31;21639;-64
2022/06/18 04:29:35;;;;;;;1.92;1.70;;;;;;;;;;1566896;31;21878;-64
2022/06/18 04:30:31;;;;;;;5.65;2.17;;;;;;;;;;1565963;31;21646;-64
2022/06/18 04:31:24;;;;;;;4.40;1.88;;;;;;;;;;1565556;31;21617;-64
2022/06/18 04:32:15;;;;;;;2.65;1.90;;;;;;;;;;1564944;31;21675;-64
2022/06/18 04:33:07;;;;;;;3.33;1.85;;;;;;;;;;1561294;31;21592;-64
2022/06/18 04:33:59;;;;;;;2.95;1.90;;;;;;;;;;1565226;31;21783;-64
2022/06/18 04:34:51;;;;;;;1.70;1.60;;;;;;;;;;1564200;31;21663;-64
2022/06/18 04:35:42;;;;;;;2.00;1.80;;;;;;;;;;1564285;31;21605;-64
2022/06/18 04:36:37;;;;;;;3.15;2.10;;;;;;;;;;1560113;31;22265;-64
2022/06/18 04:37:28;;;;;;;5.25;2.00;;;;;;;;;;1567778;31;23304;-64
2022/06/18 04:38:21;;;;;;;2.30;1.48;;;;;;;;;;1558173;31;21894;-64
2022/06/18 04:39:13;;;;;;;1.92;1.83;;;;;;;;;;1557531;31;22292;-64
2022/06/18 04:40:07;;;;;;;3.53;1.80;;;;;;;;;;1557843;31;21587;-64
2022/06/18 04:40:58;;;;;;;2.20;1.73;;;;;;;;;;1557273;31;22021;-64
2022/06/18 04:41:50;;;;;;;2.08;1.90;;;;;;;;;;1564275;31;21918;-64
2022/06/18 04:42:42;;;;;;;1.55;1.45;;;;;;;;;;1565552;31;22786;-65
2022/06/18 04:43:34;;;;;;;4.57;1.48;;;;;;;;;;1558781;31;21668;-64
2022/06/18 04:44:25;;;;;;;2.88;1.83;;;;;;;;;;1560180;31;21662;-64
2022/06/18 04:45:17;;;;;;;3.85;1.70;;;;;;;;;;1563572;31;21630;-64
2022/06/18 04:46:10;;;;;;;1.70;1.60;;;;;;;;;;1566158;31;22238;-64
2022/06/18 04:47:03;;;;;;;1.85;1.42;;;;;;;;;;1564351;31;22131;-64
2022/06/18 04:47:55;;;;;;;1.50;1.40;;;;;;;;;;1559897;31;21669;-64
2022/06/18 04:48:47;;;;;;;1.50;1.38;;;;;;;;;;1562967;31;21659;-64
2022/06/18 04:49:38;;;;;;;1.60;1.50;;;;;;;;;;1564068;31;21664;-65
2022/06/18 04:50:34;;;;;;;1.60;1.50;;;;;;;;;;1565591;31;22495;-64
2022/06/18 04:51:25;;;;;;;1.77;1.27;;;;;;;;;;1567317;31;22244;-64
2022/06/18 04:52:18;;;;;;;1.90;1.80;;;;;;;;;;1564152;31;22228;-63
2022/06/18 04:53:10;;;;;;;2.17;1.98;;;;;;;;;;1565787;31;21718;-64
2022/06/18 04:54:02;;;;;;;1.73;1.63;;;;;;;;;;1558679;31;21600;-63
2022/06/18 04:54:54;;;;;;;2.20;2.00;;;;;;;;;;1557327;31;21645;-65
2022/06/18 04:55:46;;;;;;;2.08;1.88;;;;;;;;;;1559998;31;22159;-64
2022/06/18 04:56:37;;;;;;;1.90;1.80;;;;;;;;;;1564136;31;21599;-64
2022/06/18 04:57:30;;;;;;;2.33;2.13;;;;;;;;;;1563171;31;22047;-65
2022/06/18 04:58:21;;;;;;;2.65;1.88;;;;;;;;;;1565277;31;22343;-65
2022/06/18 04:59:15;;;;;;;2.20;2.10;;;;;;;;;;1560435;31;22441;-64
2022/06/18 05:00:08;;;;;;;2.10;1.83;;;;;;;;;;1559399;31;22920;-63
2022/06/18 05:01:01;;;;;;;1.77;1.67;;;;;;;;;;1558626;31;22099;-64
2022/06/18 05:02:01;;;;;;;2.33;2.13;;;;;;;;;;1558574;31;21614;-65
2022/06/18 05:02:53;;;;;;;1.98;1.88;;;;;;;;;;1561709;31;22285;-64
2022/06/18 05:03:45;;;;;;;2.13;2.03;;;;;;;;;;1565547;31;21623;-64
2022/06/18 05:04:37;;;;;;;1.83;1.73;;;;;;;;;;1565563;31;21785;-65
2022/06/18 05:05:29;;;;;;;2.00;1.90;;;;;;;;;;1564449;31;22144;-64
2022/06/18 05:06:21;;;;;;;2.13;1.90;;;;;;;;;;1566419;31;21621;-64
2022/06/18 05:07:12;;;;;;;3.55;1.73;;;;;;;;;;1565247;31;22096;-65
2022/06/18 05:08:05;;;;;;;2.47;1.92;;;;;;;;;;1564990;31;22129;-63
2022/06/18 05:08:56;;;;;;;1.70;1.60;;;;;;;;;;1562440;31;21850;-65
2022/06/18 05:09:49;;;;;;;2.78;1.77;;;;;;;;;;1565351;31;22240;-64
2022/06/18 05:10:40;;;;;;;3.33;1.80;;;;;;;;;;1564746;31;21663;-65
2022/06/18 05:11:32;;;;;;;1.80;1.70;;;;;;;;;;1563520;31;21641;-64
2022/06/18 05:12:24;;;;;;;1.70;1.55;;;;;;;;;;1565325;31;21619;-65
2022/06/18 05:13:16;;;;;;;2.10;1.65;;;;;;;;;;1565542;31;21655;-64
2022/06/18 05:14:07;;;;;;;1.58;1.30;;;;;;;;;;1563548;31;21669;-64
2022/06/18 05:15:00;;;;;;;2.03;1.85;;;;;;;;;;1559599;31;21760;-64
2022/06/18 05:15:54;;;;;;;1.70;1.60;;;;;;;;;;1558457;31;21670;-65
2022/06/18 05:16:47;;;;;;;1.98;1.88;;;;;;;;;;1557211;31;22170;-64
2022/06/18 05:17:43;;;;;;;2.08;1.95;;;;;;;;;;1560818;31;21636;-64
2022/06/18 05:18:37;;;;;;;2.45;1.85;;;;;;;;;;1562997;31;22428;-64
2022/06/18 05:19:31;;;;;;;1.92;1.73;;;;;;;;;;1563846;31;22270;-64
2022/06/18 05:20:24;;;;;;;1.73;1.63;;;;;;;;;;1565340;31;21604;-65
2022/06/18 05:21:15;;;;;;;2.28;1.67;;;;;;;;;;1565645;31;21585;-64
2022/06/18 05:22:08;;;;;;;1.95;1.85;;;;;;;;;;1563289;31;22534;-65
2022/06/18 05:22:59;;;;;;;1.83;1.52;;;;;;;;;;1566248;31;21684;-63
2022/06/18 05:23:51;;;;;;;1.73;1.63;;;;;;;;;;1566297;31;21721;-65